Time;durP1;ratioP1;P1;durP2;ratioP2;P2;SDS_P1;SDS_P2;PMS_P1;PMS_P2;Temp;Humidity;BMP_temperature;BMP_pressure;BME280_temperature;BME280_humidity;BME280_pressure;Samples;Min_cycle;Max_cycle;Signal;HPM_P1;HPM_P2
2023/03/14 00:01:11;;;;;;;1.95;0.90;;;13.70;98.10;;;;;;5010270;28;20088;-69
2023/03/14 00:03:37;;;;;;;4.78;1.35;;;13.70;98.00;;;;;;5010106;28;20052;-69
2023/03/14 00:06:04;;;;;;;3.47;1.02;;;13.70;98.00;;;;;;5010132;28;20025;-68
2023/03/14 00:08:30;;;;;;;7.32;1.15;;;13.70;98.00;;;;;;5010521;28;20034;-69
2023/03/14 00:10:57;;;;;;;6.20;1.40;;;13.70;98.00;;;;;;5010367;28;20041;-69
2023/03/14 00:13:24;;;;;;;5.07;1.50;;;13.70;98.00;;;;;;5009572;28;20044;-68
2023/03/14 00:15:49;;;;;;;4.22;1.83;;;13.70;98.10;;;;;;5014025;28;20117;-69
2023/03/14 00:18:15;;;;;;;6.10;1.20;;;13.80;98.10;;;;;;5013807;28;20424;-69
2023/03/14 00:20:41;;;;;;;9.27;1.52;;;13.70;98.00;;;;;;5014134;28;20021;-68
2023/03/14 00:23:06;;;;;;;3.92;1.20;;;13.70;98.10;;;;;;5013791;28;20443;-68
2023/03/14 00:25:32;;;;;;;4.40;1.40;;;13.70;98.20;;;;;;5012510;28;20472;-68
2023/03/14 00:27:58;;;;;;;4.25;1.35;;;13.70;98.20;;;;;;5013433;28;20049;-71
2023/03/14 00:30:23;;;;;;;6.70;1.63;;;13.70;98.20;;;;;;5013165;28;20110;-68
2023/03/14 00:32:49;;;;;;;3.65;1.20;;;13.70;98.20;;;;;;5012742;28;20499;-68
2023/03/14 00:35:15;;;;;;;5.13;1.52;;;13.70;98.20;;;;;;5012238;28;20025;-68
2023/03/14 00:37:41;;;;;;;2.42;1.08;;;13.70;98.30;;;;;;5013083;28;20487;-68
2023/03/14 00:40:08;;;;;;;2.67;1.00;;;13.80;98.40;;;;;;5011983;28;20029;-68
2023/03/14 00:42:34;;;;;;;4.45;0.98;;;13.70;98.40;;;;;;5013133;28;20484;-68
2023/03/14 00:45:00;;;;;;;4.45;1.30;;;13.80;98.40;;;;;;5013061;28;20030;-69
2023/03/14 00:47:26;;;;;;;2.30;0.80;;;13.80;98.40;;;;;;5013529;28;20083;-68
2023/03/14 00:49:51;;;;;;;5.60;1.30;;;13.70;98.40;;;;;;5013219;28;20329;-69
2023/03/14 00:52:17;;;;;;;3.03;1.13;;;13.80;98.50;;;;;;5013058;28;20359;-68
2023/03/14 00:54:43;;;;;;;5.30;1.15;;;13.80;98.50;;;;;;5011881;28;20088;-68
2023/03/14 00:57:08;;;;;;;3.47;1.08;;;13.80;98.50;;;;;;5012929;28;20068;-68
2023/03/14 00:59:34;;;;;;;6.40;1.55;;;13.70;98.60;;;;;;5013692;28;20369;-69
2023/03/14 01:02:00;;;;;;;2.10;1.00;;;13.70;98.60;;;;;;5013158;28;20084;-69
2023/03/14 01:04:25;;;;;;;6.00;1.15;;;13.80;98.60;;;;;;5012723;28;20064;-68
2023/03/14 01:06:51;;;;;;;3.80;1.10;;;13.80;98.60;;;;;;5012969;28;20360;-68
2023/03/14 01:09:17;;;;;;;4.57;1.25;;;13.70;98.60;;;;;;5012504;28;20029;-69
2023/03/14 01:11:46;;;;;;;4.57;1.60;;;13.70;98.60;;;;;;5013101;28;20056;-68
2023/03/14 01:14:12;;;;;;;3.75;1.13;;;13.70;98.60;;;;;;5012690;28;20038;-69
2023/03/14 01:16:38;;;;;;;5.30;0.80;;;13.60;98.60;;;;;;5012785;28;20034;-69
2023/03/14 01:19:04;;;;;;;3.50;1.33;;;13.70;98.80;;;;;;5012424;28;20104;-69
2023/03/14 01:21:32;;;;;;;4.60;1.33;;;13.60;98.80;;;;;;5012246;28;20029;-69
2023/03/14 01:23:59;;;;;;;6.00;1.00;;;13.70;98.90;;;;;;5012616;28;20384;-70
2023/03/14 01:26:29;;;;;;;5.40;1.03;;;13.60;98.80;;;;;;5010858;28;20038;-69
2023/03/14 01:28:55;;;;;;;1.65;0.98;;;13.60;98.90;;;;;;5012442;28;20530;-69
2023/03/14 01:31:22;;;;;;;6.45;1.40;;;13.60;98.80;;;;;;5012219;28;20045;-68
2023/03/14 01:33:48;;;;;;;2.63;1.10;;;13.70;98.90;;;;;;5012469;28;20115;-68
2023/03/14 01:36:14;;;;;;;3.60;1.02;;;13.60;98.90;;;;;;5012128;28;20030;-69
2023/03/14 01:38:42;;;;;;;6.40;1.38;;;13.50;99.00;;;;;;5012677;28;20125;-68
2023/03/14 01:41:11;;;;;;;2.92;1.00;;;13.60;98.90;;;;;;5012012;28;20060;-69
2023/03/14 01:43:37;;;;;;;4.43;1.13;;;13.60;98.90;;;;;;5011739;28;20054;-68
2023/03/14 01:46:06;;;;;;;5.22;1.10;;;13.50;98.70;;;;;;5012031;28;20495;-69
2023/03/14 01:49:00;;;;;;;7.13;1.30;;;13.60;98.70;;;;;;5011886;28;20361;-68
2023/03/14 01:51:34;;;;;;;3.15;1.00;;;13.50;98.70;;;;;;5011430;28;20029;-69
2023/03/14 01:54:06;;;;;;;5.65;1.27;;;13.50;98.70;;;;;;5012097;28;20032;-68
2023/03/14 01:56:32;;;;;;;5.50;1.38;;;13.50;98.70;;;;;;5010926;28;20038;-68
2023/03/14 01:59:00;;;;;;;3.25;1.00;;;13.50;98.70;;;;;;5011776;28;20073;-68
2023/03/14 02:01:26;;;;;;;;;;;13.50;98.80;;;;;;5012296;28;20030;-69
2023/03/14 02:03:59;;;;;;;2.95;1.10;;;13.50;98.80;;;;;;5011704;28;20271;-68
2023/03/14 02:06:31;;;;;;;5.32;1.00;;;13.50;98.80;;;;;;5010552;28;20630;-69
2023/03/14 02:08:59;;;;;;;5.93;1.40;;;13.50;98.80;;;;;;5010869;28;20460;-68
2023/03/14 02:11:28;;;;;;;5.75;1.23;;;13.50;98.80;;;;;;5011700;28;20042;-69
2023/03/14 02:13:55;;;;;;;5.30;1.27;;;13.40;98.80;;;;;;5011508;28;20084;-68
2023/03/14 02:16:21;;;;;;;1.70;0.85;;;13.40;98.80;;;;;;5010560;28;20030;-69
2023/03/14 02:18:47;;;;;;;2.55;0.88;;;13.50;98.90;;;;;;5011250;28;20041;-69
2023/03/14 02:21:23;;;;;;;3.58;0.70;;;13.50;99.00;;;;;;5011173;28;20034;-68
2023/03/14 02:24:14;;;;;;;6.10;1.13;;;13.50;99.00;;;;;;5012004;28;20029;-69
2023/03/14 02:27:04;;;;;;;6.95;1.15;;;13.50;99.10;;;;;;5011409;28;20123;-69
2023/03/14 02:29:33;;;;;;;3.53;0.98;;;13.50;99.20;;;;;;5010077;28;20376;-68
2023/03/14 02:31:59;;;;;;;9.90;1.15;;;13.50;99.20;;;;;;5011156;28;20088;-68
2023/03/14 02:34:25;;;;;;;7.00;1.08;;;13.50;99.20;;;;;;5010895;28;20119;-70
2023/03/14 02:36:52;;;;;;;5.63;1.00;;;13.50;99.30;;;;;;5027152;28;20025;-69
2023/03/14 02:39:31;;;;;;;2.67;0.88;;;13.50;99.20;;;;;;5030438;28;20214;-69
2023/03/14 02:41:56;;;;;;;3.58;0.95;;;13.50;99.10;;;;;;5031244;28;20383;-71
2023/03/14 02:44:22;;;;;;;6.10;0.90;;;13.40;99.00;;;;;;5030998;28;20029;-69
2023/03/14 02:46:47;;;;;;;2.08;0.95;;;13.50;99.00;;;;;;5030775;28;20033;-68
2023/03/14 02:49:14;;;;;;;3.28;1.05;;;13.40;99.10;;;;;;5030611;28;20409;-68
2023/03/14 02:51:41;;;;;;;6.75;1.00;;;13.40;99.10;;;;;;5029736;28;20037;-68
2023/03/14 02:54:08;;;;;;;4.25;0.70;;;13.40;99.10;;;;;;5030454;28;20022;-68
2023/03/14 02:56:34;;;;;;;1.67;0.60;;;13.40;99.00;;;;;;5031025;28;20026;-69
2023/03/14 02:59:05;;;;;;;6.28;1.20;;;13.40;98.90;;;;;;5030895;28;20034;-69
2023/03/14 03:01:33;;;;;;;3.58;0.80;;;13.40;99.20;;;;;;5030804;28;20029;-69
2023/03/14 03:03:58;;;;;;;5.63;1.17;;;13.30;98.90;;;;;;5030605;28;20372;-68
2023/03/14 03:06:24;;;;;;;10.88;1.65;;;13.30;98.80;;;;;;5030351;28;20025;-68
2023/03/14 03:08:50;;;;;;;5.57;1.40;;;13.30;98.80;;;;;;5029674;28;20116;-69
2023/03/14 03:11:15;;;;;;;7.18;1.17;;;13.40;98.80;;;;;;5030391;28;20029;-69
2023/03/14 03:13:41;;;;;;;1.85;0.55;;;13.30;98.70;;;;;;5030431;28;20030;-68
2023/03/14 03:16:07;;;;;;;4.60;1.02;;;13.30;98.70;;;;;;5030432;28;20344;-69
2023/03/14 03:18:33;;;;;;;4.18;0.80;;;13.30;98.70;;;;;;5030283;28;20108;-69
2023/03/14 03:21:03;;;;;;;6.53;1.08;;;13.40;98.60;;;;;;5029982;28;20030;-69
2023/03/14 03:23:30;;;;;;;1.95;0.68;;;13.40;98.50;;;;;;5030436;28;20034;-68
2023/03/14 03:25:55;;;;;;;11.02;1.42;;;13.40;98.50;;;;;;5030628;28;20033;-69
2023/03/14 03:28:21;;;;;;;3.17;0.90;;;13.40;98.40;;;;;;5029374;28;20044;-69
2023/03/14 03:30:47;;;;;;;5.78;1.17;;;13.40;98.30;;;;;;5030222;28;20037;-69
2023/03/14 03:33:13;;;;;;;2.75;1.05;;;13.40;98.40;;;;;;5030327;28;20038;-68
2023/03/14 03:35:48;;;;;;;4.13;0.90;;;13.40;98.40;;;;;;5029575;28;20025;-68
2023/03/14 03:38:14;;;;;;;3.42;1.10;;;13.40;98.30;;;;;;5029310;28;20371;-69
2023/03/14 03:40:40;;;;;;;2.50;0.80;;;13.40;98.20;;;;;;5029032;28;20494;-69
2023/03/14 03:43:06;;;;;;;3.85;0.80;;;13.40;98.20;;;;;;5030020;28;20029;-69
2023/03/14 03:45:31;;;;;;;1.98;1.00;;;13.40;98.20;;;;;;5030112;28;20412;-68
2023/03/14 03:47:57;;;;;;;11.07;1.25;;;13.30;98.40;;;;;;5029701;28;20368;-69
2023/03/14 03:50:23;;;;;;;10.35;1.08;;;13.30;98.80;;;;;;5033542;28;20108;-68
2023/03/14 03:52:48;;;;;;;7.18;1.27;;;13.20;99.20;;;;;;5032812;28;20044;-69
2023/03/14 03:55:14;;;;;;;7.50;0.90;;;13.20;99.80;;;;;;5033816;28;20026;-69
2023/03/14 03:57:39;;;;;;;3.92;1.10;;;13.20;99.90;;;;;;5033677;28;20545;-70
2023/03/14 04:00:06;;;;;;;9.23;1.20;;;13.10;99.90;;;;;;5032514;28;20036;-68
2023/03/14 04:02:32;;;;;;;3.22;0.90;;;13.00;99.90;;;;;;5034089;28;20014;-71
2023/03/14 04:04:58;;;;;;;6.95;1.42;;;12.80;99.90;;;;;;5033703;28;20036;-69
2023/03/14 04:07:24;;;;;;;8.10;1.20;;;12.90;99.90;;;;;;5033579;28;20037;-69
2023/03/14 04:09:49;;;;;;;5.53;1.27;;;12.70;99.90;;;;;;5033356;28;20121;-70
2023/03/14 04:12:15;;;;;;;10.38;1.08;;;12.70;99.90;;;;;;5032299;28;20355;-69
2023/03/14 04:14:41;;;;;;;2.92;1.23;;;12.70;99.90;;;;;;5033775;28;20032;-68
2023/03/14 04:17:07;;;;;;;1.60;0.50;;;12.60;99.90;;;;;;5033301;28;20040;-70
2023/03/14 04:19:33;;;;;;;1.27;0.40;;;12.50;99.90;;;;;;5033375;28;20091;-69
2023/03/14 04:21:59;;;;;;;4.72;0.70;;;12.50;99.90;;;;;;5033196;28;20432;-69
2023/03/14 04:24:24;;;;;;;3.25;0.68;;;12.40;99.90;;;;;;5033524;28;20525;-68
2023/03/14 04:26:50;;;;;;;3.10;0.75;;;12.40;99.90;;;;;;5033672;28;20358;-69
2023/03/14 04:29:16;;;;;;;3.08;0.40;;;12.40;99.90;;;;;;5033166;28;20095;-69
2023/03/14 04:31:41;;;;;;;2.35;0.47;;;12.40;99.90;;;;;;5032073;28;20053;-69
2023/03/14 04:34:07;;;;;;;4.40;0.90;;;12.30;99.90;;;;;;5033115;28;20048;-69
2023/03/14 04:36:33;;;;;;;2.45;0.25;;;12.20;99.90;;;;;;5033080;28;20376;-68
2023/03/14 04:38:58;;;;;;;4.88;0.68;;;12.10;99.90;;;;;;5033289;28;20337;-69
2023/03/14 04:41:24;;;;;;;3.50;0.60;;;12.10;99.90;;;;;;5033029;28;20107;-68
2023/03/14 04:43:50;;;;;;;4.18;0.68;;;12.10;99.90;;;;;;5032920;28;20415;-69
2023/03/14 04:46:15;;;;;;;1.70;0.40;;;12.10;99.90;;;;;;5032760;28;20053;-69
2023/03/14 04:48:41;;;;;;;2.33;0.80;;;12.00;99.90;;;;;;5033022;28;20026;-68
2023/03/14 04:51:07;;;;;;;7.28;0.70;;;11.90;99.90;;;;;;5032937;28;20056;-68
2023/03/14 04:53:34;;;;;;;5.68;0.80;;;11.90;99.90;;;;;;5033372;28;20021;-69
2023/03/14 04:55:59;;;;;;;3.50;0.50;;;11.90;99.90;;;;;;5032618;28;20030;-69
2023/03/14 04:58:25;;;;;;;2.30;0.63;;;11.90;99.90;;;;;;5032656;28;20041;-68
2023/03/14 05:00:51;;;;;;;1.85;0.40;;;11.90;99.90;;;;;;5031540;28;20038;-69
2023/03/14 05:03:18;;;;;;;3.17;0.35;;;11.90;99.90;;;;;;5032405;28;20387;-68
2023/03/14 05:05:44;;;;;;;1.08;0.30;;;11.80;99.90;;;;;;5033084;28;20095;-68
2023/03/14 05:08:10;;;;;;;1.25;0.55;;;11.90;99.90;;;;;;5031612;28;20029;-69
2023/03/14 05:10:36;;;;;;;3.08;0.40;;;11.80;99.90;;;;;;5032622;28;20051;-68
2023/03/14 05:13:02;;;;;;;2.92;0.70;;;11.70;99.90;;;;;;5032431;28;20064;-68
2023/03/14 05:15:28;;;;;;;4.28;0.70;;;11.70;99.90;;;;;;5032385;28;20072;-69
2023/03/14 05:17:56;;;;;;;1.73;0.30;;;11.60;99.90;;;;;;5032659;28;20061;-68
2023/03/14 05:20:22;;;;;;;1.83;0.50;;;11.60;99.90;;;;;;5030986;28;20030;-67
2023/03/14 05:22:48;;;;;;;2.78;0.40;;;11.60;99.90;;;;;;5032185;28;20116;-68
2023/03/14 05:25:13;;;;;;;2.95;0.60;;;11.60;99.90;;;;;;5030889;28;20034;-68
2023/03/14 05:27:39;;;;;;;4.80;0.60;;;11.50;99.90;;;;;;5032068;28;20075;-69
2023/03/14 05:30:06;;;;;;;3.00;0.52;;;11.50;99.90;;;;;;5031945;28;20041;-68
2023/03/14 05:32:32;;;;;;;3.70;0.60;;;11.50;99.90;;;;;;5032306;28;20359;-69
2023/03/14 05:34:59;;;;;;;4.00;1.08;;;11.50;99.90;;;;;;5031939;28;20034;-68
2023/03/14 05:37:28;;;;;;;2.55;0.63;;;11.40;99.90;;;;;;5032136;28;20033;-69
2023/03/14 05:39:53;;;;;;;5.10;0.85;;;11.40;99.90;;;;;;5031854;28;20376;-68
2023/03/14 05:42:19;;;;;;;3.40;1.00;;;11.40;99.90;;;;;;5031824;28;20037;-68
2023/03/14 05:44:45;;;;;;;5.78;0.55;;;11.40;99.90;;;;;;5032229;28;20387;-69
2023/03/14 05:47:11;;;;;;;1.88;0.52;;;11.40;99.90;;;;;;5031700;28;20033;-69
2023/03/14 05:49:37;;;;;;;4.20;1.00;;;11.50;99.90;;;;;;5031814;28;20037;-68
2023/03/14 05:52:03;;;;;;;3.13;0.90;;;11.40;99.90;;;;;;5030451;28;20034;-69
2023/03/14 05:54:28;;;;;;;3.60;1.20;;;11.50;99.90;;;;;;5031264;28;20033;-69
2023/03/14 05:56:54;;;;;;;6.07;0.95;;;11.40;99.90;;;;;;5031781;28;20029;-68
2023/03/14 05:59:19;;;;;;;9.13;1.90;;;11.40;99.90;;;;;;5031228;28;20037;-69
2023/03/14 06:01:45;;;;;;;3.88;0.90;;;11.40;99.90;;;;;;5031331;28;20038;-69
2023/03/14 06:04:11;;;;;;;6.95;1.13;;;11.40;99.90;;;;;;5031103;28;20139;-68
2023/03/14 06:06:36;;;;;;;6.15;1.13;;;11.40;99.90;;;;;;5031440;28;20040;-68
2023/03/14 06:09:02;;;;;;;4.90;0.88;;;11.40;99.90;;;;;;5031090;28;20105;-69
2023/03/14 06:11:28;;;;;;;4.10;0.75;;;11.40;99.90;;;;;;5030290;28;20092;-69
2023/03/14 06:13:54;;;;;;;6.40;1.40;;;11.40;99.90;;;;;;5030139;28;20060;-68
2023/03/14 06:16:19;;;;;;;6.07;1.15;;;11.50;99.90;;;;;;5031037;28;20034;-69
2023/03/14 06:18:46;;;;;;;4.25;0.95;;;11.50;99.90;;;;;;5030857;28;20095;-68
2023/03/14 06:21:12;;;;;;;6.90;1.10;;;11.50;99.90;;;;;;5030941;28;20095;-69
2023/03/14 06:23:38;;;;;;;7.95;1.10;;;11.50;99.90;;;;;;5031357;28;20394;-68
2023/03/14 06:26:05;;;;;;;11.00;1.20;;;11.60;99.90;;;;;;5030669;28;20052;-69
2023/03/14 06:28:31;;;;;;;5.97;1.10;;;11.60;99.90;;;;;;5030961;28;20087;-68
2023/03/14 06:30:58;;;;;;;3.83;0.95;;;11.70;99.90;;;;;;5030567;28;20041;-69
2023/03/14 06:33:23;;;;;;;7.47;1.98;;;11.70;99.90;;;;;;5030717;28;20113;-69
2023/03/14 06:35:49;;;;;;;10.40;1.30;;;11.70;99.90;;;;;;5031109;28;20591;-69
2023/03/14 06:38:15;;;;;;;2.90;0.80;;;11.80;99.90;;;;;;5030716;28;20132;-69
2023/03/14 06:40:40;;;;;;;9.52;1.02;;;11.80;99.90;;;;;;5030683;28;20352;-68
2023/03/14 06:43:06;;;;;;;5.25;1.10;;;11.90;99.90;;;;;;5029390;28;20486;-68
2023/03/14 06:45:32;;;;;;;5.05;0.88;;;12.00;99.90;;;;;;5030385;28;20053;-70
2023/03/14 06:47:58;;;;;;;4.57;0.95;;;12.00;99.90;;;;;;5030809;28;20047;-69
2023/03/14 06:50:24;;;;;;;6.15;1.17;;;12.00;99.90;;;;;;5030796;28;20042;-68
2023/03/14 06:52:50;;;;;;;2.90;1.10;;;12.00;99.90;;;;;;5030506;28;20068;-68
2023/03/14 06:55:16;;;;;;;7.72;0.70;;;12.00;99.90;;;;;;5030474;28;20057;-66
2023/03/14 06:57:43;;;;;;;2.38;0.60;;;12.10;99.90;;;;;;5029471;28;20048;-68
2023/03/14 07:00:10;;;;;;;5.00;1.00;;;12.10;99.90;;;;;;5030671;28;20516;-70
2023/03/14 07:02:36;;;;;;;4.30;0.90;;;12.10;99.90;;;;;;5031735;28;20268;-68
2023/03/14 07:05:02;;;;;;;2.58;0.77;;;12.10;99.90;;;;;;5030991;28;20490;-69
2023/03/14 07:07:28;;;;;;;4.82;0.60;;;12.20;99.90;;;;;;5030222;28;20033;-67
2023/03/14 07:09:54;;;;;;;1.90;0.60;;;12.30;99.90;;;;;;5030182;28;20335;-69
2023/03/14 07:12:20;;;;;;;3.40;0.55;;;12.30;99.90;;;;;;5030382;28;20033;-69
2023/03/14 07:14:45;;;;;;;0.47;0.38;;;12.30;99.90;;;;;;5030851;28;20048;-69
2023/03/14 07:17:11;;;;;;;3.33;0.50;;;12.40;99.80;;;;;;5030232;28;20037;-68
2023/03/14 07:19:37;;;;;;;2.63;0.95;;;12.40;99.90;;;;;;5029251;28;20021;-69
2023/03/14 07:22:06;;;;;;;1.75;0.32;;;12.40;99.90;;;;;;5027440;28;20370;-68
2023/03/14 07:24:32;;;;;;;3.17;0.70;;;12.40;99.90;;;;;;5012734;28;20511;-67
2023/03/14 07:26:57;;;;;;;4.40;0.70;;;12.40;99.90;;;;;;5014978;28;20121;-67
2023/03/14 07:29:23;;;;;;;3.10;0.40;;;12.40;99.90;;;;;;5014498;28;20026;-70
2023/03/14 07:31:49;;;;;;;1.17;0.38;;;12.40;99.90;;;;;;5014017;28;20061;-69
2023/03/14 07:34:15;;;;;;;4.32;1.33;;;12.40;99.80;;;;;;5013429;28;20123;-69
2023/03/14 07:36:40;;;;;;;2.65;0.60;;;12.40;99.70;;;;;;5014179;28;20049;-71
2023/03/14 07:39:06;;;;;;;1.83;0.70;;;12.40;99.70;;;;;;5012868;28;20227;-71
2023/03/14 07:41:32;;;;;;;2.45;0.55;;;12.40;99.80;;;;;;5014588;28;20071;-70
2023/03/14 07:43:58;;;;;;;2.45;0.47;;;12.20;99.90;;;;;;5014421;28;20022;-70
2023/03/14 07:46:24;;;;;;;2.63;0.85;;;12.20;99.90;;;;;;5014388;28;20371;-71
2023/03/14 07:48:49;;;;;;;0.55;0.30;;;12.20;99.90;;;;;;5014499;28;20049;-71
2023/03/14 07:51:15;;;;;;;3.72;0.40;;;12.20;99.90;;;;;;5013535;28;20066;-69
2023/03/14 07:53:42;;;;;;;0.47;0.17;;;12.20;99.90;;;;;;5014400;28;20058;-69
2023/03/14 07:56:08;;;;;;;3.00;0.40;;;12.20;99.90;;;;;;5013708;28;20050;-69
2023/03/14 07:58:34;;;;;;;0.30;0.20;;;12.20;99.90;;;;;;5013871;28;20583;-69
2023/03/14 08:01:00;;;;;;;1.30;0.28;;;12.30;99.90;;;;;;5012613;28;20487;-70
2023/03/14 08:03:25;;;;;;;0.30;0.25;;;12.30;99.90;;;;;;5013506;28;20022;-70
2023/03/14 08:05:51;;;;;;;1.88;0.40;;;12.30;99.90;;;;;;5014102;28;20253;-72
2023/03/14 08:08:18;;;;;;;2.90;1.88;;;12.20;99.90;;;;;;5012464;28;20478;-70
2023/03/14 08:10:43;;;;;;;2.78;1.25;;;12.20;99.90;;;;;;5012370;28;20144;-69
2023/03/14 08:13:10;;;;;;;2.88;0.30;;;12.20;99.90;;;;;;5013600;28;20125;-68
2023/03/14 08:15:36;;;;;;;4.75;1.23;;;12.50;99.90;;;;;;5012351;28;20052;-68
2023/03/14 08:18:03;;;;;;;0.63;0.50;;;12.20;99.90;;;;;;5013262;28;20105;-69
2023/03/14 08:20:29;;;;;;;2.70;0.30;;;12.30;99.90;;;;;;5013900;28;20076;-68
2023/03/14 08:22:59;;;;;;;1.63;0.55;;;12.30;99.90;;;;;;5013805;28;20037;-69
2023/03/14 08:25:26;;;;;;;0.85;0.20;;;12.30;99.90;;;;;;5013192;28;20034;-68
2023/03/14 08:27:53;;;;;;;1.35;0.32;;;12.30;99.90;;;;;;5012341;28;20049;-70
2023/03/14 08:30:20;;;;;;;0.77;0.38;;;12.30;99.90;;;;;;5011859;28;20053;-69
2023/03/14 08:32:46;;;;;;;0.98;0.30;;;12.40;99.90;;;;;;5014320;28;20021;-67
2023/03/14 08:35:12;;;;;;;2.85;0.82;;;12.50;99.90;;;;;;5013267;28;20060;-69
2023/03/14 08:37:38;;;;;;;0.60;0.35;;;12.60;99.90;;;;;;5012994;28;20042;-68
2023/03/14 08:40:08;;;;;;;2.30;0.43;;;12.70;99.90;;;;;;5012941;28;20030;-70
2023/03/14 08:42:34;;;;;;;0.38;0.22;;;12.90;99.90;;;;;;5012974;28;20432;-69
2023/03/14 08:45:00;;;;;;;2.92;0.47;;;13.00;99.90;;;;;;5011963;28;20022;-69
2023/03/14 08:47:26;;;;;;;1.83;0.30;;;13.00;99.90;;;;;;5012171;28;20029;-71
2023/03/14 08:49:51;;;;;;;3.08;0.30;;;12.90;99.90;;;;;;5012922;28;20045;-74
2023/03/14 08:52:17;;;;;;;0.90;0.30;;;12.80;99.90;;;;;;5013603;28;20037;-70
2023/03/14 08:54:46;;;;;;;2.33;0.50;;;12.90;99.90;;;;;;5011736;28;20030;-69
2023/03/14 08:57:12;;;;;;;1.63;0.30;;;12.90;99.90;;;;;;5011545;28;20018;-70
2023/03/14 08:59:37;;;;;;;1.33;0.30;;;12.80;99.90;;;;;;5013186;28;20033;-71
2023/03/14 09:02:03;;;;;;;0.90;0.50;;;12.70;99.90;;;;;;5013185;28;20026;-70
2023/03/14 09:04:30;;;;;;;0.20;0.20;;;12.80;99.90;;;;;;5012510;28;20472;-69
2023/03/14 09:06:57;;;;;;;0.20;0.20;;;12.70;99.90;;;;;;5011391;28;20029;-69
2023/03/14 09:09:32;;;;;;;0.30;0.20;;;12.80;99.90;;;;;;5011400;28;20026;-69
2023/03/14 09:11:58;;;;;;;1.60;0.47;;;12.80;99.90;;;;;;5014012;28;20022;-69
2023/03/14 09:14:24;;;;;;;2.08;0.30;;;12.80;99.90;;;;;;5013675;28;20252;-69
2023/03/14 09:16:50;;;;;;;4.00;0.50;;;12.80;99.90;;;;;;5012119;28;20030;-69
2023/03/14 09:19:16;;;;;;;3.08;0.40;;;12.70;99.90;;;;;;5012241;28;20141;-69
2023/03/14 09:21:42;;;;;;;3.65;0.73;;;12.70;99.90;;;;;;5012889;28;20038;-68
2023/03/14 09:24:07;;;;;;;1.83;0.40;;;12.80;99.90;;;;;;5011173;28;20345;-69
2023/03/14 09:26:33;;;;;;;3.05;1.17;;;12.80;99.90;;;;;;5013125;28;20045;-70
2023/03/14 09:28:59;;;;;;;1.60;1.02;;;12.70;99.90;;;;;;5013855;28;20030;-70
2023/03/14 09:31:24;;;;;;;2.08;0.88;;;12.70;99.90;;;;;;5004416;28;20533;-71
2023/03/14 09:33:50;;;;;;;0.40;0.20;;;12.90;99.90;;;;;;5016738;28;20033;-69
2023/03/14 09:36:16;;;;;;;2.38;0.70;;;12.70;99.90;;;;;;5011792;28;20033;-70
2023/03/14 09:38:42;;;;;;;4.05;0.77;;;12.80;99.90;;;;;;5011191;28;20413;-69
2023/03/14 09:41:18;;;;;;;2.17;0.95;;;12.90;99.90;;;;;;5011830;28;20165;-70
2023/03/14 09:43:46;;;;;;;6.72;0.80;;;13.10;99.90;;;;;;5011907;28;20123;-69
2023/03/14 09:46:13;;;;;;;;;;;13.10;99.90;;;;;;5011693;28;20428;-70
2023/03/14 09:48:39;;;;;;;4.68;0.82;;;13.10;99.90;;;;;;5010496;28;19913;-69
2023/03/14 09:51:12;;;;;;;3.08;0.80;;;13.00;99.90;;;;;;5011771;28;20037;-70
2023/03/14 09:53:47;;;;;;;5.30;0.63;;;13.20;99.90;;;;;;5012077;28;20129;-69
2023/03/14 09:56:18;;;;;;;2.20;0.60;;;13.50;99.90;;;;;;5010835;28;20030;-69
2023/03/14 09:58:50;;;;;;;0.45;0.40;;;14.00;99.90;;;;;;5010304;28;20057;-70
2023/03/14 10:01:20;;;;;;;5.22;0.60;;;14.60;99.90;;;;;;5011405;28;20030;-71
2023/03/14 10:03:47;;;;;;;1.75;0.60;;;15.00;99.90;;;;;;5010296;28;20101;-73
2023/03/14 10:06:14;;;;;;;1.25;0.50;;;15.10;99.30;;;;;;5011399;28;20026;-70
2023/03/14 10:08:44;;;;;;;0.70;0.40;;;15.00;99.40;;;;;;5011958;28;20226;-70
2023/03/14 10:11:16;;;;;;;5.50;2.65;;;14.80;99.30;;;;;;5011592;28;20042;-70
2023/03/14 10:14:13;;;;;;;1.38;0.65;;;14.80;99.20;;;;;;5010290;28;20431;-70
2023/03/14 10:16:44;;;;;;;1.45;0.50;;;14.70;99.20;;;;;;5005942;28;20109;-69
2023/03/14 10:19:15;;;;;;;2.30;0.43;;;14.70;99.10;;;;;;5011104;28;20518;-70
2023/03/14 10:21:51;;;;;;;2.42;0.40;;;14.50;99.10;;;;;;5011106;28;20037;-70
2023/03/14 10:24:33;;;;;;;1.65;0.63;;;14.40;99.20;;;;;;5011883;28;20030;-71
2023/03/14 10:27:02;;;;;;;3.47;0.80;;;14.50;99.10;;;;;;5010657;28;20565;-70
2023/03/14 10:29:30;;;;;;;1.67;0.73;;;14.40;99.10;;;;;;5009982;28;20356;-70
2023/03/14 10:32:07;;;;;;;0.98;0.63;;;14.30;99.20;;;;;;5011232;28;20045;-71
2023/03/14 10:34:37;;;;;;;0.88;0.60;;;14.30;99.30;;;;;;5011623;28;20113;-70
2023/03/14 10:37:16;;;;;;;27.13;15.85;;;14.30;99.40;;;;;;5011000;28;20030;-71
2023/03/14 10:39:45;;;;;;;10.88;5.68;;;14.20;99.40;;;;;;5010699;28;20200;-70
2023/03/14 10:42:13;;;;;;;3.47;1.20;;;14.30;99.60;;;;;;5010954;28;20041;-69
2023/03/14 10:44:39;;;;;;;1.13;0.70;;;14.20;99.40;;;;;;5011313;28;20026;-67
2023/03/14 10:47:05;;;;;;;2.63;0.65;;;14.10;99.40;;;;;;5009825;28;20099;-70
2023/03/14 10:49:37;;;;;;;1.65;0.80;;;14.10;99.60;;;;;;5010619;28;20036;-70
2023/03/14 10:52:09;;;;;;;1.45;0.80;;;14.00;99.80;;;;;;5011019;28;20057;-68
2023/03/14 10:54:34;;;;;;;0.70;0.70;;;14.00;99.90;;;;;;5010014;28;20038;-71
2023/03/14 10:57:04;;;;;;;0.70;0.70;;;14.00;99.90;;;;;;5009928;28;20026;-68
2023/03/14 10:59:39;;;;;;;0.82;0.82;;;13.80;99.90;;;;;;5010125;28;20037;-69
2023/03/14 11:02:28;;;;;;;1.77;0.90;;;13.90;99.90;;;;;;5010605;28;20022;-70
2023/03/14 11:05:18;;;;;;;0.93;0.90;;;13.90;99.90;;;;;;5010808;28;20041;-70
2023/03/14 11:07:45;;;;;;;2.20;1.45;;;13.90;99.90;;;;;;5009660;28;20091;-70
2023/03/14 11:10:19;;;;;;;1.48;1.33;;;13.80;99.90;;;;;;5010346;28;20037;-70
2023/03/14 11:13:06;;;;;;;1.40;1.20;;;13.90;99.90;;;;;;5010523;28;20037;-70
2023/03/14 11:15:59;;;;;;;1.90;1.23;;;13.90;99.90;;;;;;5010465;28;20084;-70
2023/03/14 11:19:00;;;;;;;1.98;1.10;;;13.80;99.90;;;;;;5010502;28;20412;-70
2023/03/14 11:21:52;;;;;;;1.88;1.20;;;13.80;99.90;;;;;;5010293;28;20042;-71
2023/03/14 11:24:36;;;;;;;4.22;1.52;;;13.80;99.90;;;;;;5010315;28;20041;-69
2023/03/14 11:27:19;;;;;;;1.05;0.50;;;13.60;99.90;;;;;;5010416;28;20018;-69
2023/03/14 11:30:23;;;;;;;0.60;0.43;;;12.80;99.90;;;;;;5009556;28;20488;-70
2023/03/14 11:33:00;;;;;;;5.25;0.70;;;12.60;99.90;;;;;;5008296;28;20344;-70
2023/03/14 11:35:42;;;;;;;1.98;0.60;;;12.00;99.70;;;;;;5008397;28;20393;-70
2023/03/14 11:38:27;;;;;;;3.33;0.73;;;11.80;99.70;;;;;;5009609;28;20290;-71
2023/03/14 11:40:55;;;;;;;0.55;0.50;;;11.00;99.90;;;;;;5010590;28;20033;-69
2023/03/14 11:43:31;;;;;;;1.75;0.70;;;10.90;99.90;;;;;;5009301;28;20478;-71
2023/03/14 11:46:05;;;;;;;2.30;0.80;;;10.90;99.90;;;;;;5009250;28;20033;-70
2023/03/14 11:48:57;;;;;;;1.42;0.70;;;10.70;99.90;;;;;;5010693;28;20041;-71
2023/03/14 11:51:36;;;;;;;1.17;0.63;;;10.60;99.90;;;;;;5009816;28;20091;-70
2023/03/14 11:54:18;;;;;;;3.03;0.70;;;10.70;99.90;;;;;;5010088;28;20033;-70
2023/03/14 11:56:46;;;;;;;2.75;0.70;;;10.70;99.90;;;;;;5010921;28;20018;-71
2023/03/14 11:59:19;;;;;;;3.10;0.65;;;10.50;99.90;;;;;;5010198;28;20026;-72
2023/03/14 12:01:53;;;;;;;1.75;0.70;;;10.50;99.90;;;;;;5010142;28;20083;-71
2023/03/14 12:04:35;;;;;;;0.82;0.40;;;10.60;99.90;;;;;;5009345;28;20030;-70
2023/03/14 12:07:14;;;;;;;1.60;0.45;;;10.30;99.90;;;;;;5010024;28;20460;-70
2023/03/14 12:09:40;;;;;;;0.32;0.20;;;10.20;99.90;;;;;;5011302;28;20307;-71
2023/03/14 12:12:11;;;;;;;0.32;0.20;;;10.10;99.90;;;;;;5013902;28;20104;-72
2023/03/14 12:14:44;;;;;;;1.00;0.40;;;10.10;99.90;;;;;;5014103;28;20093;-71
2023/03/14 12:17:12;;;;;;;2.17;0.25;;;9.90;99.90;;;;;;5012541;28;20045;-69
2023/03/14 12:19:40;;;;;;;0.30;0.30;;;9.70;99.90;;;;;;5013311;28;20073;-69
2023/03/14 12:22:13;;;;;;;0.98;0.60;;;9.70;99.90;;;;;;5013357;28;20044;-70
2023/03/14 12:24:48;;;;;;;5.13;0.60;;;9.80;99.90;;;;;;5012219;28;20057;-70
2023/03/14 12:27:39;;;;;;;0.35;0.30;;;9.60;99.90;;;;;;5013443;28;20463;-69
2023/03/14 12:30:20;;;;;;;0.47;0.30;;;9.40;99.90;;;;;;5013078;28;20136;-71
2023/03/14 12:33:26;;;;;;;15.75;6.25;;;9.10;99.90;;;;;;5014149;28;20037;-73
2023/03/14 12:36:01;;;;;;;10.60;5.10;;;9.00;99.90;;;;;;5012889;28;20165;-72
2023/03/14 12:38:32;;;;;;;0.65;0.50;;;8.80;99.90;;;;;;5012376;28;20127;-70
2023/03/14 12:41:29;;;;;;;2.70;0.80;;;8.50;99.90;;;;;;5013356;28;20041;-70
2023/03/14 12:43:54;;;;;;;1.30;0.40;;;8.30;99.90;;;;;;5013556;28;20030;-69
2023/03/14 12:46:22;;;;;;;2.88;0.57;;;8.20;99.90;;;;;;5013232;28;20392;-70
2023/03/14 12:49:09;;;;;;;1.27;0.40;;;8.50;99.90;;;;;;5012939;28;20026;-71
2023/03/14 12:51:37;;;;;;;1.65;0.50;;;8.60;99.90;;;;;;5012757;28;20767;-70
2023/03/14 12:54:32;;;;;;;2.63;0.45;;;8.10;99.90;;;;;;5012518;28;20025;-71
2023/03/14 12:57:12;;;;;;;2.80;0.63;;;8.40;99.90;;;;;;5011848;28;20041;-69